TAF Text Data
IDs:
Format:
Raw Decoded Include METAR

Data at: 0205 UTC 01 Nov 2020

Region: TOP
KATL 010132Z 0102/0206 09009KT P6SM SCT020 OVC030
  FM010600 10007KT 6SM -DZ OVC012
  FM010900 06003KT 6SM -DZ VCSH OVC015
  FM011200 31003KT 6SM -DZ BKN008
  FM011400 29005KT P6SM BKN012
  FM011700 29010G15KT P6SM SCT040
  FM012000 30012G22KT P6SM SKC


KBOS 312327Z 0100/0206 24003KT P6SM SKC
  FM010700 18006KT P6SM SCT040
  FM011000 18006KT P6SM VCSH OVC035
  FM011200 18006KT P6SM -SHRA OVC025
  FM011800 19008KT P6SM OVC040
  FM012300 19009KT 6SM -SHRA BR OVC025
  FM020500 26011G19KT P6SM VCSH BKN025


KBWI 312334Z 0100/0206 13004KT P6SM FEW035 SCT120
  FM011600 20011G18KT 6SM -SHRA SCT010 OVC030
  FM011800 19010G17KT 3SM -SHRA BR BKN008 OVC015
  FM012100 23010G17KT P6SM VCSH SCT008 OVC020
  FM020000 30020G30KT P6SM SCT070


KCLE 312337Z 0100/0206 17009KT P6SM FEW250
  FM010700 20012G24KT P6SM BKN100 WS020/23050KT
  FM011200 22016G27KT 5SM -SHRA BR OVC020
  FM011700 27019G33KT P6SM VCSH BKN040
  FM020100 29021G36KT 6SM -SHRASN BR OVC030


KCLT 312325Z 0100/0206 10005KT P6SM BKN050 BKN250
  TEMPO 0109/0112 4SM -SHRA BR OVC015
  FM011200 02004KT P6SM OVC008
  PROB30 0112/0115 2SM -SHRA BR OVC003
  FM011500 26005KT 4SM BR OVC003
  FM011600 25006KT 6SM BR BKN005
  FM011700 24007KT P6SM BKN015
  FM011800 24008G19KT P6SM SCT025


KCVG 312320Z 0100/0206 16006KT P6SM BKN250
  FM010600 20010G18KT P6SM BKN050 WS020/22045KT
  FM011200 24015G25KT P6SM VCSH SCT025 BKN040
  FM011400 28015G25KT P6SM BKN025
  FM011700 29020G30KT P6SM BKN050
  FM020000 30014G22KT P6SM BKN050


KDCA 312334Z 0100/0206 14007KT P6SM SCT035 BKN090
  FM011500 20011G17KT 6SM -SHRA OVC030
  FM011800 20012G18KT 3SM -SHRA BR BKN008 OVC015
  FM012000 22010KT P6SM VCSH SCT008 OVC025
  FM012300 28020G30KT P6SM SCT070


KDEN 312323Z 0100/0206 06007KT P6SM SKC
  FM010200 15008KT P6SM SKC
  FM010800 19011KT P6SM SKC
  FM011300 23007KT P6SM SKC
  FM011900 06005KT P6SM FEW220
  FM020000 16007KT P6SM SKC
  FM020500 20008KT P6SM SKC


KDFW 312320Z 0100/0206 17010KT P6SM SCT300
  FM010600 02003KT P6SM SCT250
  FM011100 03015G25KT P6SM FEW250
  FM012300 02007KT P6SM FEW250


KDTW 312320Z 0100/0206 17012G22KT P6SM SKC
  FM010300 20012G18KT P6SM BKN100 WS020/24045KT
  FM010900 22012G18KT P6SM -SHRA BKN015 OVC025
  FM011200 26017G25KT P6SM BKN030
  FM011500 28020G30KT P6SM OVC025
  FM011900 30020G35KT P6SM OVC035
  FM020300 31018G28KT P6SM OVC020


KEWR 312333Z 0100/0206 18005KT P6SM BKN040
  FM010200 20004KT P6SM BKN040
  FM011400 20008KT P6SM SCT030 BKN040
  FM011800 20012G20KT P6SM BKN030
  FM012000 20012G20KT 2SM SHRA OVC020
  FM020100 27014G28KT P6SM SCT040 BKN100
  FM020300 29018G28KT P6SM SCT040


KFLL 312330Z 0100/0206 07008KT P6SM VCSH SCT020 BKN040 BKN120
  FM010600 07006KT P6SM VCSH SCT030 BKN050
  FM011600 08010KT P6SM VCTS SCT020CB BKN050
  FM020400 03008KT P6SM VCSH SCT030 BKN050


KIAD 312334Z 0100/0206 14005KT P6SM SCT035 BKN100
  FM011500 19011G17KT 6SM -SHRA OVC025
  FM011800 19012G18KT 3SM -SHRA BR BKN008 OVC015
  FM012000 22011KT P6SM VCSH SCT008 OVC015
  FM012200 30020G30KT P6SM SCT060


KIAH 312332Z 0100/0206 VRB04KT P6SM FEW250
  FM011900 01011G19KT P6SM FEW050 FEW250
  FM012300 02008KT P6SM FEW050 FEW250


KJFK 312333Z 0100/0206 20007KT P6SM BKN040
  FM010600 22007KT P6SM BKN035
  FM011500 20012G20KT P6SM SCT030 BKN040
  FM011900 19015G23KT P6SM BKN025
  FM012100 18014G24KT 2SM SHRA OVC015
  FM020100 26016G30KT P6SM BKN035 BKN100
  FM020300 30020G34KT P6SM SCT040


KLAS 010154Z 0102/0206 21006KT P6SM SCT250
  FM011200 21006KT P6SM BKN180
  FM012000 06006KT P6SM BKN180
  FM020200 21006KT P6SM BKN180


KLAX 312324Z 0100/0206 27009KT P6SM FEW002 SCT200
  FM010300 VRB03KT P6SM SCT003 BKN200
  FM010900 10004KT 4SM BR SCT003 BKN200
  FM011800 26006KT P6SM SCT150
  FM012000 26011KT P6SM SCT150


KLGA 312333Z 0100/0206 18006KT P6SM BKN040
  FM010400 22006KT P6SM BKN040
  FM011500 20012G18KT P6SM SCT030 BKN040
  FM011900 19013G21KT P6SM BKN025
  FM012100 18010G23KT 2SM SHRA OVC020
  FM020100 27015G30KT P6SM SCT030 BKN100
  FM020300 30019G33KT P6SM SCT040


KMCO 312325Z 0100/0206 08010KT P6SM SCT040
  FM010100 06005KT P6SM FEW030
  FM011500 07006KT P6SM FEW025 SCT040
  FM011800 03006KT P6SM VCSH SCT030 SCT040
  FM020100 34005KT P6SM FEW030


KMDW 312320Z 0100/0206 19017G27KT P6SM SCT060 BKN100 WS020/20045KT
  FM010300 22017G27KT P6SM VCSH BKN050 OVC120 WS020/22050KT
  FM010630 30020G32KT P6SM BKN035
  FM011400 31024G37KT P6SM BKN040
  FM012200 31018G30KT P6SM SKC
  FM020000 31014G23KT P6SM SKC


KMEM 312320Z 0100/0206 19005KT P6SM BKN250
  FM010700 25005KT P6SM FEW040 SCT250
  FM011200 30009KT P6SM SKC
  FM011500 34014G21KT P6SM SKC
  FM020000 36007KT P6SM SKC


KMIA 312330Z 0100/0206 06006KT P6SM VCTS SCT020CB BKN050
  FM010600 VRB04KT P6SM VCSH SCT030 BKN050
  FM011600 08008KT P6SM VCSH FEW025 SCT050


KMSP 312335Z 0100/0206 31022G40KT P6SM SCT050
  FM011200 32020G33KT P6SM SKC
  FM011800 31015G24KT P6SM SKC
  FM012200 29009KT P6SM SKC


KORD 312320Z 0100/0206 19017G27KT P6SM SCT060 BKN100 WS020/20045KT
  FM010300 22017G27KT P6SM VCSH BKN050 OVC120 WS020/22050KT
  FM010600 30020G32KT P6SM BKN035
  FM011400 31024G37KT P6SM BKN040
  FM012200 31018G30KT P6SM SKC
  FM020000 31014G23KT P6SM SKC


KPDX 312340Z 0100/0124 32006KT P6SM SKC
  FM010900 VRB03KT 6SM MIFG FEW001 WS010/09025KT
  FM011100 VRB03KT 2SM BR OVC002 WS010/09025KT
  TEMPO 0112/0116 1/2SM FG
  FM011730 10007KT P6SM SKC


KPHL 312343Z 0100/0206 VRB04KT P6SM FEW045
  FM011200 17009KT P6SM BKN050
  FM011500 18011G18KT 6SM -RA OVC020
  FM011700 19012G19KT 1SM RA BR OVC007
  FM012200 24012G18KT P6SM VCSH BKN030
  FM020000 27015G30KT 4SM SHRA BKN030
  FM020200 29014KT P6SM SCT110


KPHX 010135Z 0102/0206 29004KT P6SM FEW120 BKN200
  FM010400 09005KT P6SM FEW140 SCT200
  TEMPO 0104/0106 VRB04KT
  FM011600 10012G19KT P6SM SCT200
  FM012100 09010KT P6SM SCT200
  FM020300 11005KT P6SM SCT180 BKN250


KPIT 312320Z 0100/0206 16008KT P6SM SKC
  FM010500 19008KT P6SM BKN250 WS020/21040KT
  FM011500 21012G25KT 6SM -RA OVC015
  FM012000 31015G30KT P6SM BKN035
  FM020100 28015G30KT P6SM BKN025


KSAN 312330Z 0100/0206 VRB04KT P6SM BKN200
  FM010500 VRB04KT 3SM BR BKN003 OVC200
  FM011200 VRB04KT P6SM BKN200
  FM012000 30009KT P6SM SCT200
  FM020100 VRB04KT P6SM FEW200


KSEA 312320Z 0100/0206 34007KT P6SM BKN250
  FM011000 04003KT P6SM FEW050
  FM011600 VRB03KT P6SM SCT200
  FM020300 18003KT P6SM SCT200


KSFO 312328Z 0100/0206 29012KT P6SM SKC
  FM010500 VRB03KT P6SM SKC
  FM012100 31006KT P6SM SKC
  FM020300 29008KT P6SM SKC


KSLC 312320Z 0100/0206 33008KT P6SM SKC
  FM010300 15007KT P6SM SKC


KSTL 010119Z 0101/0206 19010KT P6SM SCT250
  FM010300 22008KT P6SM SCT200
  FM010600 28010G16KT P6SM SCT200
  FM011400 31015G26KT P6SM FEW250
  FM012300 32010KT P6SM SKC


KTPA 312320Z 0100/0206 08005KT P6SM BKN050
  FM010600 08004KT P6SM SCT020 OVC050
  FM011900 28006KT P6SM VCTS SCT040CB BKN100
  FM012200 32007KT P6SM OVC040